Airfield :
LOGIN :

Register | Disclaimer

   EN    FR    IT 

 










Legend :    VFR   Marginal VFR   IFR   Intensive IFR   Very Intensive IFR
Visi :
Ceiling :
>= 8 km
>= 3000ft
5 to 8 km
1000 to 3000 ft
1500m to 5 km
500 to 1000 ft
800 to 1500m
200 to 500 ft
< 800m
< 200 ft
Symbols :   Thunderstorms  Fog  Heavy snow  Heavy precipitations  Wind > 20 kt
SIGMETs :     Misc.  Thunderstorms  Icing  Turbulence  Mountain Waves  Volcanic Ashes






- Airport Elevation : 644 ft
- IATA code : KTT


EFKT - Kittila

CURRENT METAR :
  • 202150Z AUTO VRB01KT CAVOK 16/14 Q1017

EXPIRED METARs :
  • 202120Z AUTO 35001KT CAVOK 17/15 Q1017
  • 202050Z AUTO 33002KT CAVOK 19/15 Q1016
  • 202020Z AUTO 35002KT CAVOK 20/15 Q1016
  • 201950Z AUTO VRB01KT CAVOK 21/14 Q1016
  • 201920Z AUTO 17001KT CAVOK 22/13 Q1016
  • 201850Z 17002KT 9999 FEW040 23/12 Q1016
  • 201820Z 18002KT 9999 FEW040 23/12 Q1016
  • 201750Z 18003KT 130V190 9999 FEW040 23/12 Q1016

Expired Forecast.



MET'MAP, your aeronautical weather chart ! - Copyright ORBIFLY December 2007 - Disclaimer

ORBIFLY MET'MAP TEAM :

Programming & Development : Alexandra Zaïnal
Original concept : Baudouin d'Aumeries
Technical & hardware support : Manuel Goepfert
Assistance : Marc-Olivier Méhu




SOURCES & CREDITS :

   NOAA